sensor_id;sensor_type;location;lat;lon;timestamp;pressure;altitude;pressure_sealevel;temperature;humidity
61205;BME280;47068;55.780;37.520;2024-01-07T00:01:02;100172.41;;;-15.88;59.43
61205;BME280;47068;55.780;37.520;2024-01-07T00:03:27;100174.09;;;-15.90;59.11
61205;BME280;47068;55.780;37.520;2024-01-07T00:05:53;100171.50;;;-15.98;58.41
61205;BME280;47068;55.780;37.520;2024-01-07T00:08:19;100180.78;;;-16.06;59.44
61205;BME280;47068;55.780;37.520;2024-01-07T00:10:44;100185.00;;;-16.08;59.60
61205;BME280;47068;55.780;37.520;2024-01-07T00:13:09;100191.78;;;-16.10;59.02
61205;BME280;47068;55.780;37.520;2024-01-07T00:15:35;100192.63;;;-16.13;59.55
61205;BME280;47068;55.780;37.520;2024-01-07T00:18:00;100190.03;;;-16.16;59.04
61205;BME280;47068;55.780;37.520;2024-01-07T00:20:26;100197.72;;;-16.13;59.02
61205;BME280;47068;55.780;37.520;2024-01-07T00:22:51;100198.56;;;-16.12;59.55
61205;BME280;47068;55.780;37.520;2024-01-07T00:25:16;100197.69;;;-16.16;59.69
61205;BME280;47068;55.780;37.520;2024-01-07T00:27:43;100192.50;;;-16.23;58.35
61205;BME280;47068;55.780;37.520;2024-01-07T00:30:09;100205.25;;;-16.26;59.08
61205;BME280;47068;55.780;37.520;2024-01-07T00:32:35;100214.56;;;-16.27;58.05
61205;BME280;47068;55.780;37.520;2024-01-07T00:35:00;100194.94;;;-16.39;58.92
61205;BME280;47068;55.780;37.520;2024-01-07T00:37:26;100208.53;;;-16.37;58.02
61205;BME280;47068;55.780;37.520;2024-01-07T00:39:51;100217.06;;;-16.34;58.42
61205;BME280;47068;55.780;37.520;2024-01-07T00:42:17;100193.16;;;-16.49;58.75
61205;BME280;47068;55.780;37.520;2024-01-07T00:44:42;100222.03;;;-16.44;58.01
61205;BME280;47068;55.780;37.520;2024-01-07T00:47:07;100217.78;;;-16.48;58.57
61205;BME280;47068;55.780;37.520;2024-01-07T00:49:33;100220.25;;;-16.54;57.87
61205;BME280;47068;55.780;37.520;2024-01-07T00:51:58;100187.72;;;-16.85;57.85
61205;BME280;47068;55.780;37.520;2024-01-07T00:54:23;100226.91;;;-16.69;57.88
61205;BME280;47068;55.780;37.520;2024-01-07T00:56:49;100233.63;;;-16.76;59.06
61205;BME280;47068;55.780;37.520;2024-01-07T00:59:15;100228.59;;;-16.71;58.24
61205;BME280;47068;55.780;37.520;2024-01-07T01:01:41;100233.69;;;-16.70;58.90
61205;BME280;47068;55.780;37.520;2024-01-07T01:04:06;100238.84;;;-16.64;58.66
61205;BME280;47068;55.780;37.520;2024-01-07T01:06:31;100246.47;;;-16.65;58.17
61205;BME280;47068;55.780;37.520;2024-01-07T01:08:57;100249.06;;;-16.62;57.59
61205;BME280;47068;55.780;37.520;2024-01-07T01:11:22;100263.44;;;-16.67;58.84
61205;BME280;47068;55.780;37.520;2024-01-07T01:13:48;100243.69;;;-16.85;58.30
61205;BME280;47068;55.780;37.520;2024-01-07T01:16:13;100273.53;;;-16.73;58.52
61205;BME280;47068;55.780;37.520;2024-01-07T01:18:39;100279.31;;;-16.85;57.88
61205;BME280;47068;55.780;37.520;2024-01-07T01:21:04;100271.66;;;-16.87;58.15
61205;BME280;47068;55.780;37.520;2024-01-07T01:23:29;100284.31;;;-16.94;59.06
61205;BME280;47068;55.780;37.520;2024-01-07T01:25:55;100294.41;;;-16.99;58.53
61205;BME280;47068;55.780;37.520;2024-01-07T01:28:20;100297.03;;;-16.93;59.27
61205;BME280;47068;55.780;37.520;2024-01-07T01:30:45;100302.09;;;-16.96;58.79
61205;BME280;47068;55.780;37.520;2024-01-07T01:33:11;100313.16;;;-16.95;59.35
61205;BME280;47068;55.780;37.520;2024-01-07T01:35:36;100309.59;;;-17.08;58.68
61205;BME280;47068;55.780;37.520;2024-01-07T01:38:02;100312.84;;;-17.16;58.90
61205;BME280;47068;55.780;37.520;2024-01-07T01:40:27;100312.03;;;-17.15;58.91
61205;BME280;47068;55.780;37.520;2024-01-07T01:42:53;100317.22;;;-17.08;58.86
61205;BME280;47068;55.780;37.520;2024-01-07T01:45:18;100331.31;;;-17.30;58.03
61205;BME280;47068;55.780;37.520;2024-01-07T01:47:45;100324.34;;;-17.43;57.16
61205;BME280;47068;55.780;37.520;2024-01-07T01:50:11;100334.44;;;-17.46;57.32
61205;BME280;47068;55.780;37.520;2024-01-07T01:52:37;100339.44;;;-17.52;57.04
61205;BME280;47068;55.780;37.520;2024-01-07T01:55:03;100334.94;;;-17.70;57.38
61205;BME280;47068;55.780;37.520;2024-01-07T01:57:31;100348.47;;;-17.72;57.84
61205;BME280;47068;55.780;37.520;2024-01-07T01:59:57;100326.22;;;-17.85;57.47
61205;BME280;47068;55.780;37.520;2024-01-07T02:02:28;100361.97;;;-17.75;57.82
61205;BME280;47068;55.780;37.520;2024-01-07T02:04:56;100329.41;;;-17.95;57.73
61205;BME280;47068;55.780;37.520;2024-01-07T02:07:21;100379.72;;;-17.78;58.01
61205;BME280;47068;55.780;37.520;2024-01-07T02:09:47;100355.72;;;-17.93;58.55
61205;BME280;47068;55.780;37.520;2024-01-07T02:12:12;100375.50;;;-17.76;58.52
61205;BME280;47068;55.780;37.520;2024-01-07T02:14:38;100394.97;;;-17.76;58.43
61205;BME280;47068;55.780;37.520;2024-01-07T02:17:04;100373.53;;;-17.90;58.50
61205;BME280;47068;55.780;37.520;2024-01-07T02:19:30;100390.56;;;-17.86;58.54
61205;BME280;47068;55.780;37.520;2024-01-07T02:21:55;100396.53;;;-17.83;58.87
61205;BME280;47068;55.780;37.520;2024-01-07T02:24:21;100402.56;;;-17.79;58.70
61205;BME280;47068;55.780;37.520;2024-01-07T02:26:48;100407.53;;;-17.85;58.61
61205;BME280;47068;55.780;37.520;2024-01-07T02:29:13;100404.19;;;-17.81;58.99
61205;BME280;47068;55.780;37.520;2024-01-07T02:31:41;100392.22;;;-17.88;58.95
61205;BME280;47068;55.780;37.520;2024-01-07T02:34:09;100386.22;;;-17.92;58.93
61205;BME280;47068;55.780;37.520;2024-01-07T02:36:35;100407.56;;;-17.84;59.23
61205;BME280;47068;55.780;37.520;2024-01-07T02:39:01;100399.78;;;-17.91;58.40
61205;BME280;47068;55.780;37.520;2024-01-07T02:41:27;100401.25;;;-18.03;58.19
61205;BME280;47068;55.780;37.520;2024-01-07T02:43:52;100396.06;;;-18.09;57.76
61205;BME280;47068;55.780;37.520;2024-01-07T02:46:19;100385.72;;;-18.19;57.57
61205;BME280;47068;55.780;37.520;2024-01-07T02:48:44;100396.00;;;-18.13;58.00
61205;BME280;47068;55.780;37.520;2024-01-07T02:51:09;100407.84;;;-18.14;57.98
61205;BME280;47068;55.780;37.520;2024-01-07T02:53:35;100413.53;;;-18.25;57.31
61205;BME280;47068;55.780;37.520;2024-01-07T02:56:00;100422.75;;;-18.29;57.84
61205;BME280;47068;55.780;37.520;2024-01-07T02:58:26;100434.44;;;-18.37;57.29
61205;BME280;47068;55.780;37.520;2024-01-07T03:00:51;100405.28;;;-18.57;57.53
61205;BME280;47068;55.780;37.520;2024-01-07T03:03:17;100434.34;;;-18.42;57.92
61205;BME280;47068;55.780;37.520;2024-01-07T03:05:42;100424.13;;;-18.46;57.47
61205;BME280;47068;55.780;37.520;2024-01-07T03:08:08;100431.09;;;-18.36;57.70
61205;BME280;47068;55.780;37.520;2024-01-07T03:10:33;100435.50;;;-18.27;57.72
61205;BME280;47068;55.780;37.520;2024-01-07T03:12:59;100443.06;;;-18.29;57.36
61205;BME280;47068;55.780;37.520;2024-01-07T03:15:25;100421.00;;;-18.33;57.22
61205;BME280;47068;55.780;37.520;2024-01-07T03:17:50;100433.41;;;-18.47;56.47
61205;BME280;47068;55.780;37.520;2024-01-07T03:20:16;100439.78;;;-18.67;56.54
61205;BME280;47068;55.780;37.520;2024-01-07T03:22:41;100444.78;;;-18.70;57.31
61205;BME280;47068;55.780;37.520;2024-01-07T03:25:07;100448.25;;;-18.65;57.68
61205;BME280;47068;55.780;37.520;2024-01-07T03:27:32;100456.00;;;-18.60;57.80
61205;BME280;47068;55.780;37.520;2024-01-07T03:29:58;100460.25;;;-18.58;57.83
61205;BME280;47068;55.780;37.520;2024-01-07T03:32:23;100466.28;;;-18.51;56.66
61205;BME280;47068;55.780;37.520;2024-01-07T03:34:49;100469.25;;;-18.72;56.40
61205;BME280;47068;55.780;37.520;2024-01-07T03:37:14;100478.44;;;-18.77;56.86
61205;BME280;47068;55.780;37.520;2024-01-07T03:39:40;100462.00;;;-18.93;57.26
61205;BME280;47068;55.780;37.520;2024-01-07T03:42:05;100479.09;;;-18.86;56.73
61205;BME280;47068;55.780;37.520;2024-01-07T03:44:37;100492.66;;;-18.84;57.23
61205;BME280;47068;55.780;37.520;2024-01-07T03:47:02;100497.91;;;-18.76;57.49
61205;BME280;47068;55.780;37.520;2024-01-07T03:49:27;100504.56;;;-18.81;56.69
61205;BME280;47068;55.780;37.520;2024-01-07T03:51:53;100514.03;;;-18.74;57.78
61205;BME280;47068;55.780;37.520;2024-01-07T03:54:18;100515.00;;;-18.69;56.98
61205;BME280;47068;55.780;37.520;2024-01-07T03:56:44;100518.94;;;-18.82;56.52
61205;BME280;47068;55.780;37.520;2024-01-07T03:59:09;100523.75;;;-18.92;56.64
61205;BME280;47068;55.780;37.520;2024-01-07T04:01:34;100519.16;;;-19.07;56.49
61205;BME280;47068;55.780;37.520;2024-01-07T04:04:00;100524.88;;;-19.14;56.19
61205;BME280;47068;55.780;37.520;2024-01-07T04:06:25;100523.06;;;-19.20;55.74
61205;BME280;47068;55.780;37.520;2024-01-07T04:08:51;100524.53;;;-19.28;56.22
61205;BME280;47068;55.780;37.520;2024-01-07T04:11:16;100519.94;;;-19.42;55.53
61205;BME280;47068;55.780;37.520;2024-01-07T04:13:42;100525.09;;;-19.39;55.46
61205;BME280;47068;55.780;37.520;2024-01-07T04:16:18;100521.31;;;-19.56;55.53
61205;BME280;47068;55.780;37.520;2024-01-07T04:18:45;100530.91;;;-19.43;55.81
61205;BME280;47068;55.780;37.520;2024-01-07T04:21:11;100540.13;;;-19.45;55.90
61205;BME280;47068;55.780;37.520;2024-01-07T04:23:36;100546.81;;;-19.49;55.99
61205;BME280;47068;55.780;37.520;2024-01-07T04:26:02;100529.50;;;-19.65;56.10
61205;BME280;47068;55.780;37.520;2024-01-07T04:28:27;100528.56;;;-19.69;56.13
61205;BME280;47068;55.780;37.520;2024-01-07T04:30:52;100542.38;;;-19.57;56.37
61205;BME280;47068;55.780;37.520;2024-01-07T04:33:18;100542.94;;;-19.68;56.27
61205;BME280;47068;55.780;37.520;2024-01-07T04:35:43;100525.47;;;-19.88;56.11
61205;BME280;47068;55.780;37.520;2024-01-07T04:38:09;100558.84;;;-19.73;56.65
61205;BME280;47068;55.780;37.520;2024-01-07T04:40:34;100558.03;;;-19.72;56.63
61205;BME280;47068;55.780;37.520;2024-01-07T04:43:00;100563.22;;;-19.68;56.73
61205;BME280;47068;55.780;37.520;2024-01-07T04:45:25;100564.13;;;-19.66;56.60
61205;BME280;47068;55.780;37.520;2024-01-07T04:47:51;100575.97;;;-19.65;56.97
61205;BME280;47068;55.780;37.520;2024-01-07T04:50:16;100581.81;;;-19.67;57.34
61205;BME280;47068;55.780;37.520;2024-01-07T04:52:45;100590.97;;;-19.72;56.61
61205;BME280;47068;55.780;37.520;2024-01-07T04:55:11;100586.59;;;-19.78;56.39
61205;BME280;47068;55.780;37.520;2024-01-07T04:57:37;100594.88;;;-19.82;56.63
61205;BME280;47068;55.780;37.520;2024-01-07T05:00:03;100592.47;;;-19.79;56.70
61205;BME280;47068;55.780;37.520;2024-01-07T05:02:29;100607.25;;;-19.64;56.69
61205;BME280;47068;55.780;37.520;2024-01-07T05:04:55;100614.69;;;-19.69;56.23
61205;BME280;47068;55.780;37.520;2024-01-07T05:07:20;100614.56;;;-19.73;56.61
61205;BME280;47068;55.780;37.520;2024-01-07T05:09:46;100608.19;;;-19.89;56.62
61205;BME280;47068;55.780;37.520;2024-01-07T05:12:11;100620.03;;;-19.88;56.78
61205;BME280;47068;55.780;37.520;2024-01-07T05:14:37;100626.97;;;-19.82;56.21
61205;BME280;47068;55.780;37.520;2024-01-07T05:17:03;100611.19;;;-20.02;56.47
61205;BME280;47068;55.780;37.520;2024-01-07T05:19:29;100635.81;;;-19.96;56.64
61205;BME280;47068;55.780;37.520;2024-01-07T05:21:54;100640.69;;;-20.03;56.89
61205;BME280;47068;55.780;37.520;2024-01-07T05:24:20;100644.66;;;-20.12;56.81
61205;BME280;47068;55.780;37.520;2024-01-07T05:26:45;100648.84;;;-20.13;56.58
61205;BME280;47068;55.780;37.520;2024-01-07T05:29:11;100635.03;;;-20.22;56.39
61205;BME280;47068;55.780;37.520;2024-01-07T05:31:40;100647.78;;;-20.19;56.55
61205;BME280;47068;55.780;37.520;2024-01-07T05:34:06;100653.91;;;-20.13;55.64
61205;BME280;47068;55.780;37.520;2024-01-07T05:36:31;100627.16;;;-20.31;56.00
61205;BME280;47068;55.780;37.520;2024-01-07T05:38:57;100668.91;;;-20.19;56.22
61205;BME280;47068;55.780;37.520;2024-01-07T05:41:22;100561.19;;;-20.91;56.29
61205;BME280;47068;55.780;37.520;2024-01-07T05:43:48;100679.88;;;-20.18;55.93
61205;BME280;47068;55.780;37.520;2024-01-07T05:46:13;100674.72;;;-20.21;55.95
61205;BME280;47068;55.780;37.520;2024-01-07T05:48:47;100569.84;;;-20.85;55.67
61205;BME280;47068;55.780;37.520;2024-01-07T05:51:13;100694.25;;;-20.17;55.63
61205;BME280;47068;55.780;37.520;2024-01-07T05:53:40;100710.84;;;-20.25;56.14
61205;BME280;47068;55.780;37.520;2024-01-07T05:56:06;100701.56;;;-20.26;55.72
61205;BME280;47068;55.780;37.520;2024-01-07T05:58:31;100694.84;;;-20.26;56.35
61205;BME280;47068;55.780;37.520;2024-01-07T06:00:57;100696.69;;;-20.20;56.64
61205;BME280;47068;55.780;37.520;2024-01-07T06:03:23;100697.50;;;-20.21;55.83
61205;BME280;47068;55.780;37.520;2024-01-07T06:05:48;100689.72;;;-20.27;55.60
61205;BME280;47068;55.780;37.520;2024-01-07T06:08:14;100695.06;;;-20.18;55.69
61205;BME280;47068;55.780;37.520;2024-01-07T06:10:40;100703.69;;;-20.13;55.51
61205;BME280;47068;55.780;37.520;2024-01-07T06:13:06;100696.50;;;-20.26;55.26
61205;BME280;47068;55.780;37.520;2024-01-07T06:15:31;100675.06;;;-20.37;56.05
61205;BME280;47068;55.780;37.520;2024-01-07T06:17:57;100717.81;;;-20.20;55.67
61205;BME280;47068;55.780;37.520;2024-01-07T06:20:23;100694.50;;;-20.36;55.80
61205;BME280;47068;55.780;37.520;2024-01-07T06:22:49;100713.59;;;-20.19;55.96
61205;BME280;47068;55.780;37.520;2024-01-07T06:25:14;100711.06;;;-20.19;56.43
61205;BME280;47068;55.780;37.520;2024-01-07T06:27:40;100714.50;;;-20.17;56.50
61205;BME280;47068;55.780;37.520;2024-01-07T06:30:07;100731.28;;;-20.21;56.10
61205;BME280;47068;55.780;37.520;2024-01-07T06:32:33;100719.38;;;-20.23;56.34
61205;BME280;47068;55.780;37.520;2024-01-07T06:34:59;100731.28;;;-20.21;55.99
61205;BME280;47068;55.780;37.520;2024-01-07T06:37:25;100712.56;;;-20.24;55.69
61205;BME280;47068;55.780;37.520;2024-01-07T06:39:51;100724.38;;;-20.25;55.28
61205;BME280;47068;55.780;37.520;2024-01-07T06:42:16;100734.31;;;-20.31;55.48
61205;BME280;47068;55.780;37.520;2024-01-07T06:44:42;100746.09;;;-20.33;55.36
61205;BME280;47068;55.780;37.520;2024-01-07T06:47:07;100742.81;;;-20.29;55.12
61205;BME280;47068;55.780;37.520;2024-01-07T06:49:33;100734.28;;;-20.32;55.68
61205;BME280;47068;55.780;37.520;2024-01-07T06:51:58;100749.00;;;-20.21;55.43
61205;BME280;47068;55.780;37.520;2024-01-07T06:54:24;100756.63;;;-20.19;55.85
61205;BME280;47068;55.780;37.520;2024-01-07T06:56:50;100759.44;;;-20.10;56.03
61205;BME280;47068;55.780;37.520;2024-01-07T06:59:16;100764.47;;;-20.12;54.81
61205;BME280;47068;55.780;37.520;2024-01-07T07:01:41;100776.28;;;-20.12;54.82
61205;BME280;47068;55.780;37.520;2024-01-07T07:04:07;100773.50;;;-20.20;54.77
61205;BME280;47068;55.780;37.520;2024-01-07T07:06:32;100788.88;;;-20.14;55.16
61205;BME280;47068;55.780;37.520;2024-01-07T07:08:58;100796.16;;;-19.97;56.26
61205;BME280;47068;55.780;37.520;2024-01-07T07:11:24;100798.75;;;-19.96;56.31
61205;BME280;47068;55.780;37.520;2024-01-07T07:13:49;100803.38;;;-19.84;55.84
61205;BME280;47068;55.780;37.520;2024-01-07T07:16:14;100806.34;;;-19.71;56.47
61205;BME280;47068;55.780;37.520;2024-01-07T07:18:40;100803.88;;;-19.68;56.64
61205;BME280;47068;55.780;37.520;2024-01-07T07:21:05;100811.00;;;-19.56;56.61
61205;BME280;47068;55.780;37.520;2024-01-07T07:23:31;100813.41;;;-19.61;55.45
61205;BME280;47068;55.780;37.520;2024-01-07T07:25:56;100805.28;;;-19.50;55.21
61205;BME280;47068;55.780;37.520;2024-01-07T07:28:22;100809.56;;;-19.48;55.54
61205;BME280;47068;55.780;37.520;2024-01-07T07:30:47;100820.78;;;-19.40;56.10
61205;BME280;47068;55.780;37.520;2024-01-07T07:33:13;100814.84;;;-19.40;56.28
61205;BME280;47068;55.780;37.520;2024-01-07T07:35:39;100827.75;;;-19.33;55.93
61205;BME280;47068;55.780;37.520;2024-01-07T07:38:06;100775.25;;;-19.65;55.57
61205;BME280;47068;55.780;37.520;2024-01-07T07:40:31;100817.16;;;-19.48;55.10
61205;BME280;47068;55.780;37.520;2024-01-07T07:42:57;100820.66;;;-19.44;55.66
61205;BME280;47068;55.780;37.520;2024-01-07T07:45:23;100820.06;;;-19.36;54.62
61205;BME280;47068;55.780;37.520;2024-01-07T07:47:48;100803.63;;;-19.50;54.73
61205;BME280;47068;55.780;37.520;2024-01-07T07:50:14;100829.09;;;-19.44;54.74
61205;BME280;47068;55.780;37.520;2024-01-07T07:52:42;100813.69;;;-19.51;54.84
61205;BME280;47068;55.780;37.520;2024-01-07T07:55:09;100847.34;;;-19.27;54.48
61205;BME280;47068;55.780;37.520;2024-01-07T07:57:35;100835.66;;;-19.24;54.23
61205;BME280;47068;55.780;37.520;2024-01-07T08:00:00;100845.22;;;-19.15;54.58
61205;BME280;47068;55.780;37.520;2024-01-07T08:02:26;100847.69;;;-19.16;54.03
61205;BME280;47068;55.780;37.520;2024-01-07T08:04:51;100852.09;;;-19.11;53.83
61205;BME280;47068;55.780;37.520;2024-01-07T08:07:17;100836.59;;;-19.20;53.12
61205;BME280;47068;55.780;37.520;2024-01-07T08:09:43;100850.91;;;-19.22;53.39
61205;BME280;47068;55.780;37.520;2024-01-07T08:12:09;100862.81;;;-19.20;53.86
61205;BME280;47068;55.780;37.520;2024-01-07T08:14:37;100864.59;;;-19.17;53.29
61205;BME280;47068;55.780;37.520;2024-01-07T08:17:06;100877.16;;;-19.20;52.90
61205;BME280;47068;55.780;37.520;2024-01-07T08:19:32;100883.75;;;-19.25;53.34
61205;BME280;47068;55.780;37.520;2024-01-07T08:21:57;100884.94;;;-19.15;52.87
61205;BME280;47068;55.780;37.520;2024-01-07T08:24:23;100876.88;;;-19.29;53.10
61205;BME280;47068;55.780;37.520;2024-01-07T08:26:48;100709.41;;;-20.19;52.97
61205;BME280;47068;55.780;37.520;2024-01-07T08:29:14;100887.78;;;-19.05;53.04
61205;BME280;47068;55.780;37.520;2024-01-07T08:31:40;100892.75;;;-19.08;52.59
61205;BME280;47068;55.780;37.520;2024-01-07T08:34:05;100902.63;;;-19.17;52.95
61205;BME280;47068;55.780;37.520;2024-01-07T08:36:30;100906.22;;;-19.10;52.98
61205;BME280;47068;55.780;37.520;2024-01-07T08:38:56;100907.03;;;-19.11;52.91
61205;BME280;47068;55.780;37.520;2024-01-07T08:41:21;100903.81;;;-19.06;53.04
61205;BME280;47068;55.780;37.520;2024-01-07T08:43:47;100907.16;;;-19.07;53.07
61205;BME280;47068;55.780;37.520;2024-01-07T08:46:12;100907.19;;;-19.05;52.66
61205;BME280;47068;55.780;37.520;2024-01-07T08:48:39;100908.06;;;-19.05;52.59
61205;BME280;47068;55.780;37.520;2024-01-07T08:51:04;100914.72;;;-19.08;52.68
61205;BME280;47068;55.780;37.520;2024-01-07T08:53:31;100913.88;;;-19.07;52.82
61205;BME280;47068;55.780;37.520;2024-01-07T08:55:56;100904.25;;;-19.19;53.26
61205;BME280;47068;55.780;37.520;2024-01-07T08:58:22;100911.53;;;-19.03;52.69
61205;BME280;47068;55.780;37.520;2024-01-07T09:00:47;100904.16;;;-18.95;53.36
61205;BME280;47068;55.780;37.520;2024-01-07T09:03:13;100918.69;;;-18.90;53.47
61205;BME280;47068;55.780;37.520;2024-01-07T09:05:38;100912.53;;;-18.69;52.96
61205;BME280;47068;55.780;37.520;2024-01-07T09:08:04;100915.94;;;-18.69;52.96
61205;BME280;47068;55.780;37.520;2024-01-07T09:10:31;100909.25;;;-18.65;52.78
61205;BME280;47068;55.780;37.520;2024-01-07T09:12:56;100915.34;;;-18.60;53.28
61205;BME280;47068;55.780;37.520;2024-01-07T09:15:22;100917.78;;;-18.63;53.13
61205;BME280;47068;55.780;37.520;2024-01-07T09:17:47;100917.78;;;-18.63;53.28
61205;BME280;47068;55.780;37.520;2024-01-07T09:20:12;100885.88;;;-18.84;53.48
61205;BME280;47068;55.780;37.520;2024-01-07T09:22:38;100912.59;;;-18.66;53.08
61205;BME280;47068;55.780;37.520;2024-01-07T09:25:05;100919.34;;;-18.68;53.61
61205;BME280;47068;55.780;37.520;2024-01-07T09:27:31;100923.63;;;-18.66;53.78
61205;BME280;47068;55.780;37.520;2024-01-07T09:29:57;100922.25;;;-18.55;53.11
61205;BME280;47068;55.780;37.520;2024-01-07T09:32:23;100913.75;;;-18.57;52.97
61205;BME280;47068;55.780;37.520;2024-01-07T09:34:48;100918.81;;;-18.57;52.64
61205;BME280;47068;55.780;37.520;2024-01-07T09:37:14;100886.00;;;-18.79;52.44
61205;BME280;47068;55.780;37.520;2024-01-07T09:39:43;100920.56;;;-18.56;53.05
61205;BME280;47068;55.780;37.520;2024-01-07T09:42:14;100920.44;;;-18.59;53.08
61205;BME280;47068;55.780;37.520;2024-01-07T09:44:40;100924.91;;;-18.50;53.45
61205;BME280;47068;55.780;37.520;2024-01-07T09:47:10;100902.97;;;-18.48;53.36
61205;BME280;47068;55.780;37.520;2024-01-07T09:49:37;100913.31;;;-18.42;53.16
61205;BME280;47068;55.780;37.520;2024-01-07T09:52:04;100923.63;;;-18.36;52.92
61205;BME280;47068;55.780;37.520;2024-01-07T09:54:30;100889.47;;;-18.47;52.45
61205;BME280;47068;55.780;37.520;2024-01-07T09:57:01;100905.03;;;-18.35;53.03
61205;BME280;47068;55.780;37.520;2024-01-07T09:59:30;100920.44;;;-18.29;52.63
61205;BME280;47068;55.780;37.520;2024-01-07T10:01:57;100923.09;;;-18.24;53.17
61205;BME280;47068;55.780;37.520;2024-01-07T10:04:24;100929.22;;;-18.18;53.60
61205;BME280;47068;55.780;37.520;2024-01-07T10:06:50;100912.44;;;-18.13;53.60
61205;BME280;47068;55.780;37.520;2024-01-07T10:09:16;100943.34;;;-17.97;53.64
61205;BME280;47068;55.780;37.520;2024-01-07T10:11:43;100936.00;;;-17.87;53.40
61205;BME280;47068;55.780;37.520;2024-01-07T10:14:09;100938.97;;;-17.72;53.06
61205;BME280;47068;55.780;37.520;2024-01-07T10:16:34;100932.19;;;-17.71;53.23
61205;BME280;47068;55.780;37.520;2024-01-07T10:19:00;100913.84;;;-17.92;52.19
61205;BME280;47068;55.780;37.520;2024-01-07T10:21:25;100941.44;;;-17.73;52.65
61205;BME280;47068;55.780;37.520;2024-01-07T10:23:51;100938.31;;;-17.65;52.56
61205;BME280;47068;55.780;37.520;2024-01-07T10:26:32;100949.34;;;-17.63;51.71
61205;BME280;47068;55.780;37.520;2024-01-07T10:28:57;100951.06;;;-17.63;52.38
61205;BME280;47068;55.780;37.520;2024-01-07T10:31:23;100945.16;;;-17.61;51.92
61205;BME280;47068;55.780;37.520;2024-01-07T10:33:49;100943.72;;;-17.51;52.27
61205;BME280;47068;55.780;37.520;2024-01-07T10:36:15;100940.44;;;-17.45;52.18
61205;BME280;47068;55.780;37.520;2024-01-07T10:38:44;100938.84;;;-17.42;51.56
61205;BME280;47068;55.780;37.520;2024-01-07T10:41:11;100933.16;;;-17.32;52.57
61205;BME280;47068;55.780;37.520;2024-01-07T10:43:39;100931.72;;;-17.22;52.04
61205;BME280;47068;55.780;37.520;2024-01-07T10:46:05;100921.53;;;-17.22;52.33
61205;BME280;47068;55.780;37.520;2024-01-07T10:48:36;100936.19;;;-17.12;51.26
61205;BME280;47068;55.780;37.520;2024-01-07T10:51:03;100935.47;;;-17.06;51.02
61205;BME280;47068;55.780;37.520;2024-01-07T10:53:33;100936.56;;;-16.97;51.96
61205;BME280;47068;55.780;37.520;2024-01-07T10:56:05;100935.91;;;-16.88;52.12
61205;BME280;47068;55.780;37.520;2024-01-07T10:58:33;100940.50;;;-16.72;51.51
61205;BME280;47068;55.780;37.520;2024-01-07T11:01:02;100926.78;;;-16.79;50.85
61205;BME280;47068;55.780;37.520;2024-01-07T11:05:56;100940.78;;;-16.58;51.80
61205;BME280;47068;55.780;37.520;2024-01-07T11:08:41;100945.19;;;-16.53;50.86
61205;BME280;47068;55.780;37.520;2024-01-07T11:11:17;100942.50;;;-16.57;51.76
61205;BME280;47068;55.780;37.520;2024-01-07T11:13:46;100948.44;;;-16.60;50.63
61205;BME280;47068;55.780;37.520;2024-01-07T11:16:11;100947.72;;;-16.51;51.85
61205;BME280;47068;55.780;37.520;2024-01-07T11:18:39;100945.19;;;-16.51;51.41
61205;BME280;47068;55.780;37.520;2024-01-07T11:21:05;100923.63;;;-16.68;52.59
61205;BME280;47068;55.780;37.520;2024-01-07T11:23:35;100944.53;;;-16.43;52.23
61205;BME280;47068;55.780;37.520;2024-01-07T11:26:07;100946.38;;;-16.35;51.65
61205;BME280;47068;55.780;37.520;2024-01-07T11:28:58;100941.72;;;-16.55;51.35
61205;BME280;47068;55.780;37.520;2024-01-07T11:34:08;100952.34;;;-16.75;51.65
61205;BME280;47068;55.780;37.520;2024-01-07T11:36:37;100957.41;;;-16.75;51.62
61205;BME280;47068;55.780;37.520;2024-01-07T11:39:04;100954.66;;;-16.85;51.83
61205;BME280;47068;55.780;37.520;2024-01-07T11:41:35;100948.59;;;-16.90;51.33
61205;BME280;47068;55.780;37.520;2024-01-07T11:44:01;100956.19;;;-16.91;51.93
61205;BME280;47068;55.780;37.520;2024-01-07T11:46:29;100952.06;;;-16.88;52.65
61205;BME280;47068;55.780;37.520;2024-01-07T11:48:57;100957.38;;;-16.77;52.35
61205;BME280;47068;55.780;37.520;2024-01-07T11:51:31;100961.66;;;-16.76;52.05
61205;BME280;47068;55.780;37.520;2024-01-07T11:53:57;100966.78;;;-16.73;52.97
61205;BME280;47068;55.780;37.520;2024-01-07T11:56:26;100958.25;;;-16.76;53.03
61205;BME280;47068;55.780;37.520;2024-01-07T11:58:52;100973.13;;;-16.56;52.67
61205;BME280;47068;55.780;37.520;2024-01-07T12:01:18;100974.16;;;-16.48;53.33
61205;BME280;47068;55.780;37.520;2024-01-07T12:03:46;100970.91;;;-16.41;51.95
61205;BME280;47068;55.780;37.520;2024-01-07T12:06:15;100972.63;;;-16.40;51.73
61205;BME280;47068;55.780;37.520;2024-01-07T12:08:41;100946.81;;;-16.55;52.27
61205;BME280;47068;55.780;37.520;2024-01-07T12:11:08;100957.09;;;-16.50;52.53
61205;BME280;47068;55.780;37.520;2024-01-07T12:13:34;100972.81;;;-16.30;53.15
61205;BME280;47068;55.780;37.520;2024-01-07T12:16:00;100984.69;;;-16.32;52.63
61205;BME280;47068;55.780;37.520;2024-01-07T12:18:25;100976.06;;;-16.38;52.20
61205;BME280;47068;55.780;37.520;2024-01-07T12:20:58;100973.63;;;-16.33;52.31
61205;BME280;47068;55.780;37.520;2024-01-07T12:23:27;100965.84;;;-16.38;52.59
61205;BME280;47068;55.780;37.520;2024-01-07T12:25:53;100982.25;;;-16.26;53.01
61205;BME280;47068;55.780;37.520;2024-01-07T12:28:19;100976.47;;;-16.19;52.30
61205;BME280;47068;55.780;37.520;2024-01-07T12:30:47;100986.72;;;-16.16;53.34